Joe Foss Field Airport
KFSD : now visible

Airfield :











YOU CAN JOIN US ON...

 
LOGIN :

Register | Disclaimer

   EN    FR    IT 

 









Legend :    VFR   Marginal VFR   IFR   Intensive IFR   Very Intensive IFR
Visi :
Ceiling :
>= 8 km
>= 3000ft
5 to 8 km
1000 to 3000 ft
1500m to 5 km
500 to 1000 ft
800 to 1500m
200 to 500 ft
< 800m
< 200 ft
Symbols :   Thunderstorms  Fog  Heavy snow  Heavy precipitations  Wind > 20 kt






- Airport Elevation : 1429 ft
- IATA code : FSD


KFSD - Joe Foss Field

CURRENT METAR :
  • 112056Z 17007KT 10SM FEW055 FEW110 SCT250 28/14 A2998 RMK AO2 SLP144 VIRGA NE E T02780144 56006

EXPIRED METARs :
  • 111956Z 21004KT 10SM FEW110 SCT250 28/14 A2998 RMK AO2 SLP146 T02830139
  • 111856Z 18010KT 10SM FEW110 SCT250 28/13 A2999 RMK AO2 SLP147 T02780133
  • 111756Z 16013G20KT 10SM FEW110 SCT250 27/12 A3000 RMK AO2 SLP150 T02670122 10267 20144 58007

TAF KFSD
Valid from the 11 at 20:00 until the 12 at 18:00 UTC


112027Z 1120/1218 18008KT P6SM FEW110 SCT250
FM120100 15011KT P6SM FEW120
FM120600 15010KT P6SM VCTS BKN100CB
FM121300 14011KT P6SM BKN026
FM121400 15012G20KT P6SM BKN025
KZMP FIR / North America



MET'MAP, your aeronautical weather chart ! - Copyright ORBIFLY December 2007 - Disclaimer

ORBIFLY MET'MAP TEAM :

Programming & Development : Alexandra Zaïnal
Concept & original design : Baudouin d'Aumeries
Assistance for programming : Marc-Olivier Méhu
Technical & hardware support : Manuel Goepfert

Contact : metmap@orbifly.com




SOURCES & CREDITS :

   NOAA       Earth
Advisory